Flight Track Log - Related Links

Times and Time Zones

All times are in EDT time to prevent confusion due to time zone crossing. See the RPA3436 flight status page for this flight to view local times or setup timezone preferences in your user account.

Time Position Orientation Groundspeed Altitude Reporting Facility
EDT Latitude Longitude Course Direction KTS MPH feet Rate Location/Type
Tue 07:50:15 AM 32.8950 -79.9783 13° North 282 325 3,900  Level Jacksonville Center
Tue 07:51:00 AM 33.2508 -79.9265 North  Level FlightAware Approximate
Tue 07:51:15 AM 32.9669 -79.9314 29° Northeast 317 365 5,700  Level Jacksonville Center
Tue 07:52:00 AM 33.3418 -79.8958 23° Northeast  Level FlightAware Approximate
Tue 07:52:15 AM 33.0547 -79.9358 358° North 305 351 9,200  Level Jacksonville Center
Tue 07:53:00 AM 33.4339 -79.8699 North  Level FlightAware Approximate
Tue 07:53:15 AM 33.1508 -79.9403 358° North 315 362 9,900  Level Jacksonville Center
Tue 07:54:00 AM 33.5267 -79.8448 13° North  Level FlightAware Approximate
Tue 07:54:15 AM 33.2508 -79.9344 North 336 387 9,900  Level Jacksonville Center
Tue 07:55:00 AM 33.6192 -79.8184 13° North  Level FlightAware Approximate
Tue 07:55:15 AM 33.3483 -79.9064 14° North 349 402 10,900  Level Jacksonville Center
Tue 07:56:15 AM 33.4500 -79.8806 12° North 355 409 13,500 2,700 Climbing Jacksonville Center
Tue 07:57:15 AM 33.5514 -79.8497 14° North 366 421 16,300 2,650 Climbing Jacksonville Center
Tue 07:58:15 AM 33.6614 -79.8208 12° North 381 438 18,800 2,450 Climbing Jacksonville Center
Tue 07:59:15 AM 33.7733 -79.7894 13° North 398 458 21,200 2,200 Climbing Jacksonville Center
Tue 08:00:15 AM 33.8783 -79.7408 21° North 403 464 23,200 1,950 Climbing Jacksonville Center
Tue 08:01:15 AM 33.9633 -79.6375 45° Northeast 403 464 25,100 1,850 Climbing Jacksonville Center
Tue 08:02:15 AM 34.0461 -79.5317 47° Northeast 414 476 26,900 1,650 Climbing Jacksonville Center
Tue 08:03:15 AM 34.1350 -79.4256 45° Northeast 433 498 28,400 1,337 Climbing Jacksonville Center
Tue 08:05:10 AM 34.3117 -79.2603 38° Northeast 478 550 30,800 1,330 Climbing Washington Center
Tue 08:06:11 AM 34.4286 -79.1900 26° Northeast 481 554 32,300 1,073 Climbing Washington Center
Tue 08:07:13 AM 34.5497 -79.1197 26° Northeast 476 548 33,000 350 Climbing Washington Center
Tue 08:08:11 AM 34.6683 -79.0514 25° Northeast 470 541 33,000  Level Washington Center
Tue 08:09:09 AM 34.7872 -78.9833 25° Northeast 470 541 33,000  Level Washington Center
Tue 08:10:10 AM 34.9039 -78.9147 26° Northeast 470 541 33,000  Level Washington Center
Tue 08:11:10 AM 35.0206 -78.8458 26° Northeast 470 541 33,000  Level Washington Center
Tue 08:12:11 AM 35.1394 -78.7744 26° Northeast 470 541 33,000  Level Washington Center
Tue 08:13:09 AM 35.2581 -78.7056 25° Northeast 470 541 33,000  Level Washington Center
Tue 08:14:09 AM 35.3936 -78.6217 27° Northeast 493 567 33,000  Level Washington Center
Tue 08:15:10 AM 35.4975 -78.5567 27° Northeast 481 554 33,000 -49 Level Washington Center
Tue 08:16:11 AM 35.6353 -78.4772 25° Northeast 476 548 32,900 -942 Descending Washington Center
Tue 08:17:11 AM 35.7517 -78.4072 26° Northeast 471 542 31,100 -974 Descending Washington Center
Tue 08:18:08 AM 35.8722 -78.3372 25° Northeast 471 542 31,000 -50 Descending Washington Center
Tue 08:19:10 AM 35.9906 -78.2644 26° Northeast 471 542 31,000 -49 Level Washington Center
Tue 08:20:11 AM 36.1092 -78.1911 27° Northeast 471 542 30,900 -1,279 Descending Washington Center
Tue 08:21:12 AM 36.2297 -78.1181 26° Northeast 471 542 28,400 -1,983 Descending Washington Center
Tue 08:22:09 AM 36.3417 -78.0494 26° Northeast 465 535 27,000 -712 Descending Washington Center
Tue 08:23:10 AM 36.4431 -77.9856 27° Northeast 452 520 27,000 -49 Level Washington Center
Tue 08:24:11 AM 36.5569 -77.9167 26° Northeast 452 520 26,900 -1,017 Descending Washington Center
Tue 08:25:08 AM 36.6775 -77.8397 27° Northeast 458 527 25,000 -1,932 Descending Washington Center
Tue 08:26:09 AM 36.7956 -77.7656 27° Northeast 464 534 23,100 -1,475 Descending Washington Center
Tue 08:27:10 AM 36.9139 -77.6908 27° Northeast 469 540 22,000 -541 Descending Washington Center
Tue 08:28:11 AM 37.0278 -77.6211 26° Northeast 469 540 22,000  Level Washington Center
Tue 08:29:11 AM 37.1436 -77.5486 27° Northeast 469 540 22,000  Level Washington Center
Tue 08:30:10 AM 37.2594 -77.4733 27° Northeast 464 534 22,000  Level Washington Center
Tue 08:31:10 AM 37.3753 -77.4031 26° Northeast 464 534 22,000  Level Washington Center
Tue 08:32:11 AM 37.4911 -77.3297 27° Northeast 458 527 22,000 -807 Level Washington Center
Tue 08:33:09 AM 37.6272 -77.2936 12° North 458 527 20,400 2,521 Descending Washington Center
Tue 08:34:10 AM 37.7422 -77.2700 North 437 503 27,000 -1,918 Climbing Washington Center
Tue 08:35:11 AM 37.8489 -77.2486 North 413 475 16,500 -6,099 Descending Washington Center
Tue 08:36:11 AM 37.9494 -77.2272 10° North 390 449 14,700 -1,271 Descending Washington Center
Tue 08:37:09 AM 38.0414 -77.2106 North 371 427 14,000 -1,050 Descending Washington Center
Tue 08:38:11 AM 38.1397 -77.1917 North 365 420 12,600 -1,672 Descending Washington Center
Tue 08:39:11 AM 38.2339 -77.1672 12° North 354 407 10,600 -1,322 Descending Washington Center
Tue 08:40:09 AM 38.3300 -77.1506 North 349 402 10,000 -303 Descending Washington Center
Tue 08:41:10 AM 38.4344 -77.1264 10° North 354 407 10,000  Level Washington Center
Tue 08:42:10 AM 38.5306 -77.1097 North 354 407 10,000 -99 Level Washington Center
Tue 08:43:11 AM 38.6225 -77.0878 11° North 354 407 9,800 -780 Descending Washington Center
Tue 08:43:50 AM 38.6833 -77.0667 15° North 317 365 8,700 -1,771 Descending Potomac TRACON
Tue 08:44:56 AM 38.7833 -77.0833 353° North 303 349 6,700 -1,750 Descending Potomac TRACON
Tue 08:45:50 AM 38.8333 -77.1167 333° Northwest 289 333 5,200 -1,778 Descending Potomac TRACON
Tue 08:46:44 AM 38.8833 -77.1833 314° West 274 315 3,500 -1,105 Descending Potomac TRACON
Tue 08:47:44 AM 38.9500 -77.2333 330° Northwest 265 305 3,100 -250 Descending Potomac TRACON
Tue 08:48:44 AM 38.9667 -77.1833 67° East 221 254 3,000 -100 Descending Potomac TRACON

Login

Don't have an account? Register now (free) for customized features, flight alerts, and more!